createdAt,value
2023-01-20T00:01:37.890Z,8.70
2023-01-20T00:04:04.649Z,7.85
2023-01-20T00:06:31.369Z,9.20
2023-01-20T00:09:00.676Z,9.73
2023-01-20T00:11:27.768Z,11.35
2023-01-20T00:13:59.538Z,10.13
2023-01-20T00:16:27.237Z,8.80
2023-01-20T00:18:54.434Z,12.15
2023-01-20T00:21:21.295Z,10.75
2023-01-20T00:23:47.985Z,11.00
2023-01-20T00:26:17.692Z,9.82
2023-01-20T00:28:44.796Z,9.48
2023-01-20T00:31:12.445Z,10.57
2023-01-20T00:33:39.372Z,8.75
2023-01-20T00:36:06.514Z,9.55
2023-01-20T00:38:33.024Z,10.15
2023-01-20T00:40:59.447Z,10.23
2023-01-20T00:43:25.910Z,8.98
2023-01-20T00:45:52.438Z,10.05
2023-01-20T00:48:18.855Z,10.30
2023-01-20T00:50:45.263Z,10.25
2023-01-20T00:53:11.671Z,9.38
2023-01-20T00:55:38.111Z,10.45
2023-01-20T00:58:04.565Z,8.98
2023-01-20T01:00:31.424Z,10.00
2023-01-20T01:02:57.905Z,10.80
2023-01-20T01:05:24.425Z,9.63
2023-01-20T01:07:50.814Z,8.95
2023-01-20T01:10:17.447Z,9.48
2023-01-20T01:12:43.852Z,11.23
2023-01-20T01:15:10.984Z,9.38
2023-01-20T01:17:37.532Z,9.27
2023-01-20T01:20:04.368Z,10.05
2023-01-20T01:22:32.791Z,12.05
2023-01-20T01:24:59.193Z,8.85
2023-01-20T01:27:28.026Z,9.60
2023-01-20T01:29:54.502Z,9.65
2023-01-20T01:32:21.301Z,9.35
2023-01-20T01:34:47.798Z,8.93
2023-01-20T01:37:14.285Z,9.73
2023-01-20T01:39:40.693Z,11.32
2023-01-20T01:42:33.383Z,10.85
2023-01-20T01:45:21.943Z,10.90
2023-01-20T01:47:54.315Z,10.48
2023-01-20T01:50:26.088Z,10.13
2023-01-20T01:52:55.505Z,9.88
2023-01-20T01:55:27.107Z,10.38
2023-01-20T02:00:20.748Z,9.57
2023-01-20T02:02:47.385Z,11.45
2023-01-20T02:05:15.468Z,10.57
2023-01-20T02:07:45.613Z,9.70
2023-01-20T02:10:13.056Z,10.98
2023-01-20T02:12:41.190Z,11.88
2023-01-20T02:15:08.387Z,12.13
2023-01-20T02:18:08.498Z,11.00
2023-01-20T02:20:57.842Z,10.90
2023-01-20T02:23:59.314Z,10.50
2023-01-20T02:26:43.682Z,9.10
2023-01-20T02:29:31.985Z,10.02
2023-01-20T02:32:17.134Z,10.40
2023-01-20T02:34:53.426Z,10.25
2023-01-20T02:37:25.377Z,9.70
2023-01-20T02:40:29.146Z,9.18
2023-01-20T02:43:08.907Z,10.52
2023-01-20T02:45:38.075Z,9.55
2023-01-20T02:48:23.056Z,10.40
2023-01-20T02:50:49.448Z,10.65
2023-01-20T02:53:17.690Z,11.95
2023-01-20T02:55:49.426Z,14.55
2023-01-20T02:58:30.389Z,37.10
2023-01-20T03:01:02.362Z,31.88
2023-01-20T03:03:35.723Z,16.05
2023-01-20T03:06:05.431Z,16.40
2023-01-20T03:08:33.030Z,17.98
2023-01-20T03:11:04.673Z,23.83
2023-01-20T03:16:07.489Z,16.80
2023-01-20T03:18:35.259Z,20.58
2023-01-20T03:21:04.073Z,29.77
2023-01-20T03:23:34.072Z,28.40
2023-01-20T03:26:03.081Z,21.00
2023-01-20T03:28:29.531Z,11.18
2023-01-20T03:30:57.923Z,11.43
2023-01-20T03:33:25.057Z,10.60
2023-01-20T03:35:52.466Z,12.85
2023-01-20T03:38:18.957Z,12.57
2023-01-20T03:41:01.672Z,13.15
2023-01-20T03:43:45.518Z,12.38
2023-01-20T03:46:20.944Z,13.27
2023-01-20T03:48:58.134Z,12.40
2023-01-20T03:51:39.310Z,12.10
2023-01-20T03:54:11.210Z,13.00
2023-01-20T03:56:51.137Z,11.68
2023-01-20T03:59:20.239Z,11.95
2023-01-20T04:01:47.271Z,10.07
2023-01-20T04:04:17.339Z,10.05
2023-01-20T04:06:45.399Z,11.05
2023-01-20T04:09:19.418Z,10.10
2023-01-20T04:11:46.052Z,12.18
2023-01-20T04:14:12.537Z,10.60
2023-01-20T04:16:39.083Z,11.73
2023-01-20T04:19:05.496Z,13.93
2023-01-20T04:21:45.438Z,10.02
2023-01-20T04:24:28.750Z,11.60
2023-01-20T04:26:55.219Z,12.52
2023-01-20T04:29:21.631Z,16.27
2023-01-20T04:31:48.064Z,21.02
2023-01-20T04:34:17.891Z,18.10
2023-01-20T04:36:44.333Z,15.75
2023-01-20T04:39:10.834Z,15.15
2023-01-20T04:41:37.311Z,16.55
2023-01-20T04:44:03.762Z,14.32
2023-01-20T04:46:30.235Z,17.88
2023-01-20T04:48:56.705Z,22.60
2023-01-20T04:51:23.269Z,35.85
2023-01-20T04:53:49.722Z,22.52
2023-01-20T04:56:16.313Z,34.85
2023-01-20T04:58:43.388Z,28.23
2023-01-20T05:01:10.013Z,33.65
2023-01-20T05:03:36.648Z,23.42
2023-01-20T05:06:03.272Z,32.20
2023-01-20T05:08:29.670Z,32.03
2023-01-20T05:10:56.135Z,24.38
2023-01-20T05:13:22.581Z,33.05
2023-01-20T05:15:49.077Z,36.40
2023-01-20T05:18:15.578Z,30.42
2023-01-20T05:20:44.984Z,23.67
2023-01-20T05:23:11.548Z,27.23
2023-01-20T05:25:38.007Z,26.70
2023-01-20T05:28:04.575Z,20.42
2023-01-20T05:30:31.069Z,23.95
2023-01-20T05:32:57.540Z,35.90
2023-01-20T05:35:24.062Z,22.10
2023-01-20T05:37:54.789Z,21.27
2023-01-20T05:40:21.926Z,22.53
2023-01-20T05:42:48.336Z,24.92
2023-01-20T05:45:14.914Z,17.08
2023-01-20T05:47:41.445Z,27.13
2023-01-20T05:50:08.364Z,17.55
2023-01-20T05:52:34.802Z,36.50
2023-01-20T05:55:01.205Z,47.50
2023-01-20T05:57:27.635Z,62.83
2023-01-20T05:59:55.628Z,34.40
2023-01-20T06:02:22.206Z,35.15
2023-01-20T06:04:49.049Z,23.20
2023-01-20T06:07:16.037Z,21.20
2023-01-20T06:09:42.473Z,27.98
2023-01-20T06:12:08.999Z,16.08
2023-01-20T06:14:35.401Z,20.40
2023-01-20T06:17:01.859Z,24.20
2023-01-20T06:19:28.291Z,16.33
2023-01-20T06:21:54.686Z,19.73
2023-01-20T06:24:21.191Z,18.92
2023-01-20T06:26:50.498Z,18.83
2023-01-20T06:29:16.911Z,21.83
2023-01-20T06:31:44.737Z,18.58
2023-01-20T06:34:12.092Z,19.83
2023-01-20T06:36:39.071Z,25.75
2023-01-20T06:39:05.621Z,26.73
2023-01-20T06:41:32.514Z,19.98
2023-01-20T06:43:58.922Z,21.92
2023-01-20T06:46:25.516Z,25.38
2023-01-20T06:48:52.105Z,26.20
2023-01-20T06:51:20.427Z,39.92
2023-01-20T06:53:47.538Z,46.10
2023-01-20T06:56:15.528Z,49.88
2023-01-20T06:58:42.439Z,38.47
2023-01-20T07:01:14.387Z,36.90
2023-01-20T07:03:44.433Z,48.63
2023-01-20T07:06:20.081Z,32.05
2023-01-20T07:08:46.888Z,50.53
2023-01-20T07:11:13.462Z,44.35
2023-01-20T07:13:40.136Z,58.97
2023-01-20T07:16:09.494Z,61.30
2023-01-20T07:18:37.704Z,50.85
2023-01-20T07:21:04.905Z,40.65
2023-01-20T07:23:33.463Z,36.90
2023-01-20T07:26:02.008Z,36.33
2023-01-20T07:28:30.025Z,51.40
2023-01-20T07:30:56.478Z,50.83
2023-01-20T07:33:22.967Z,31.23
2023-01-20T07:35:53.579Z,68.95
2023-01-20T07:38:20.276Z,34.40
2023-01-20T07:40:46.736Z,36.53
2023-01-20T07:43:13.116Z,39.85
2023-01-20T07:45:39.549Z,56.97
2023-01-20T07:48:07.786Z,37.40
2023-01-20T07:50:35.291Z,32.25
2023-01-20T07:53:01.935Z,26.88
2023-01-20T07:55:28.835Z,30.40
2023-01-20T07:57:56.189Z,23.25
2023-01-20T08:00:22.701Z,28.35
2023-01-20T08:02:49.117Z,30.83
2023-01-20T08:05:25.155Z,27.23
2023-01-20T08:07:53.126Z,31.35
2023-01-20T08:10:23.214Z,24.55
2023-01-20T08:12:53.596Z,37.90
2023-01-20T08:15:20.124Z,31.42
2023-01-20T08:17:46.529Z,33.28
2023-01-20T08:20:13.245Z,33.92
2023-01-20T08:22:39.635Z,27.13
2023-01-20T08:25:06.531Z,23.90
2023-01-20T08:27:32.936Z,27.17
2023-01-20T08:29:59.384Z,26.48
2023-01-20T08:32:25.855Z,25.63
2023-01-20T08:34:52.255Z,28.00
2023-01-20T08:37:18.751Z,27.23
2023-01-20T08:39:45.175Z,36.83
2023-01-20T08:42:11.601Z,28.77
2023-01-20T08:44:38.061Z,32.58
2023-01-20T08:47:04.546Z,33.25
2023-01-20T08:49:31.328Z,30.27
2023-01-20T08:51:58.265Z,29.95
2023-01-20T08:54:24.746Z,34.67
2023-01-20T08:56:53.888Z,25.60
2023-01-20T08:59:21.013Z,33.85
2023-01-20T09:01:47.519Z,29.08
2023-01-20T09:04:13.911Z,35.75
2023-01-20T09:06:44.549Z,42.28
2023-01-20T09:09:11.899Z,30.35
2023-01-20T09:11:39.989Z,33.42
2023-01-20T09:14:06.649Z,31.25
2023-01-20T09:16:33.163Z,38.38
2023-01-20T09:18:59.619Z,28.95
2023-01-20T09:21:26.033Z,25.52
2023-01-20T09:23:52.538Z,25.20
2023-01-20T09:26:34.410Z,23.67
2023-01-20T09:29:09.214Z,27.60
2023-01-20T09:32:00.294Z,28.10
2023-01-20T09:34:29.427Z,24.20
2023-01-20T09:36:58.624Z,28.40
2023-01-20T09:39:43.683Z,27.40
2023-01-20T09:42:50.266Z,26.95
2023-01-20T09:45:35.251Z,23.17
2023-01-20T09:48:59.615Z,27.10
2023-01-20T09:51:59.554Z,23.58
2023-01-20T09:54:33.568Z,25.20
2023-01-20T09:57:01.713Z,26.20
2023-01-20T09:59:36.819Z,27.98
2023-01-20T10:02:12.047Z,24.75
2023-01-20T10:04:55.015Z,29.70
2023-01-20T10:07:46.200Z,26.50
2023-01-20T10:10:31.850Z,25.63
2023-01-20T10:13:14.237Z,24.05
2023-01-20T10:15:46.118Z,28.55
2023-01-20T10:18:28.495Z,30.33
2023-01-20T10:21:02.964Z,28.80
2023-01-20T10:23:42.675Z,28.25
2023-01-20T10:26:20.928Z,27.27
2023-01-20T10:28:55.970Z,25.50
2023-01-20T10:31:27.688Z,29.65
2023-01-20T10:33:58.923Z,29.90
2023-01-20T10:36:29.764Z,33.13
2023-01-20T10:39:04.367Z,31.25
2023-01-20T10:41:30.793Z,29.33
2023-01-20T10:43:59.374Z,30.58
2023-01-20T10:46:53.155Z,31.88
2023-01-20T10:49:40.226Z,24.65
2023-01-20T10:52:25.588Z,26.77
2023-01-20T10:55:18.858Z,27.90
2023-01-20T10:57:54.669Z,27.58
2023-01-20T11:00:28.727Z,30.10
2023-01-20T11:02:59.224Z,32.10
2023-01-20T11:05:38.135Z,34.05
2023-01-20T11:08:26.895Z,43.40
2023-01-20T11:10:56.611Z,30.45
2023-01-20T11:13:23.185Z,31.90
2023-01-20T11:15:53.714Z,31.83
2023-01-20T11:18:27.848Z,29.33
2023-01-20T11:21:07.654Z,29.42
2023-01-20T11:23:57.443Z,27.35
2023-01-20T11:26:31.628Z,26.30
2023-01-20T11:29:02.162Z,28.33
2023-01-20T11:31:45.086Z,28.00
2023-01-20T11:34:22.759Z,29.45
2023-01-20T11:37:22.122Z,37.22
2023-01-20T11:39:51.623Z,30.25
2023-01-20T11:42:26.360Z,26.95
2023-01-20T11:44:55.720Z,29.45
2023-01-20T11:47:24.081Z,24.67
2023-01-20T11:50:08.524Z,27.02
2023-01-20T11:52:37.145Z,27.17
2023-01-20T11:55:14.918Z,27.85
2023-01-20T11:57:57.912Z,28.65
2023-01-20T12:00:24.284Z,26.17
2023-01-20T12:03:01.045Z,32.58
2023-01-20T12:05:44.038Z,28.75
2023-01-20T12:08:18.913Z,31.58
2023-01-20T12:10:46.227Z,29.83
2023-01-20T12:14:18.063Z,27.65
2023-01-20T12:16:49.987Z,29.02
2023-01-20T12:19:20.378Z,25.10
2023-01-20T12:21:52.623Z,24.95
2023-01-20T12:24:38.743Z,24.33
2023-01-20T12:27:20.528Z,25.30
2023-01-20T12:29:51.704Z,26.23
2023-01-20T12:32:18.202Z,25.92
2023-01-20T12:34:44.969Z,29.98
2023-01-20T12:37:21.385Z,28.02
2023-01-20T12:40:11.404Z,27.77
2023-01-20T12:43:03.824Z,25.35
2023-01-20T12:46:07.176Z,24.52
2023-01-20T12:48:51.784Z,24.00
2023-01-20T12:52:23.988Z,24.05
2023-01-20T12:55:20.976Z,20.58
2023-01-20T12:57:51.898Z,26.15
2023-01-20T13:00:30.209Z,20.40
2023-01-20T13:03:18.275Z,19.83
2023-01-20T13:06:13.710Z,24.25
2023-01-20T13:09:25.335Z,22.60
2023-01-20T13:12:15.186Z,24.50
2023-01-20T13:15:08.537Z,23.80
2023-01-20T13:17:53.169Z,24.23
2023-01-20T13:20:28.145Z,24.42
2023-01-20T13:22:56.440Z,25.58
2023-01-20T13:25:24.022Z,23.75
2023-01-20T13:27:54.309Z,24.35
2023-01-20T13:30:47.859Z,34.40
2023-01-20T13:33:16.448Z,20.67
2023-01-20T13:35:46.973Z,22.33
2023-01-20T13:38:20.473Z,20.55
2023-01-20T13:40:50.566Z,20.55
2023-01-20T13:43:23.834Z,17.65
2023-01-20T13:46:05.788Z,21.10
2023-01-20T13:48:34.432Z,17.17
2023-01-20T13:51:16.078Z,16.98
2023-01-20T13:56:35.398Z,14.85
2023-01-20T13:59:01.821Z,17.35
2023-01-20T14:01:28.379Z,16.60
2023-01-20T14:04:21.738Z,15.38
2023-01-20T14:06:51.213Z,14.30
2023-01-20T14:09:26.007Z,14.02
2023-01-20T14:11:55.226Z,15.25
2023-01-20T14:14:25.019Z,11.95
2023-01-20T14:16:51.513Z,13.45
2023-01-20T14:19:24.871Z,14.98
2023-01-20T14:21:54.607Z,14.30
2023-01-20T14:24:28.812Z,12.32
2023-01-20T14:27:17.075Z,12.73
2023-01-20T14:29:44.821Z,11.98
2023-01-20T14:32:29.118Z,13.73
2023-01-20T14:34:56.653Z,13.32
2023-01-20T14:37:29.012Z,13.00
2023-01-20T14:39:58.728Z,12.95
2023-01-20T14:42:27.457Z,13.13
2023-01-20T14:44:55.517Z,14.07
2023-01-20T14:47:24.661Z,12.57
2023-01-20T14:49:53.103Z,13.10
2023-01-20T14:52:27.493Z,14.48
2023-01-20T14:54:56.302Z,12.23
2023-01-20T14:57:41.222Z,13.23
2023-01-20T15:00:30.336Z,11.60
2023-01-20T15:03:12.006Z,19.48
2023-01-20T15:06:04.897Z,29.95
2023-01-20T15:08:34.375Z,20.13
2023-01-20T15:11:09.803Z,17.50
2023-01-20T15:13:37.948Z,16.50
2023-01-20T15:16:13.805Z,20.70
2023-01-20T15:18:40.442Z,17.35
2023-01-20T15:21:27.036Z,13.35
2023-01-20T15:23:53.779Z,12.07
2023-01-20T15:26:30.835Z,13.10
2023-01-20T15:28:59.057Z,13.63
2023-01-20T15:31:32.991Z,14.07
2023-01-20T15:34:09.017Z,13.13
2023-01-20T15:36:40.481Z,13.45
2023-01-20T15:39:18.570Z,12.75
2023-01-20T15:41:46.826Z,14.43
2023-01-20T15:44:18.892Z,15.13
2023-01-20T15:47:17.599Z,13.27
2023-01-20T15:50:18.673Z,13.20
2023-01-20T15:52:45.528Z,13.40
2023-01-20T15:55:17.284Z,13.00
2023-01-20T15:57:47.097Z,15.45
2023-01-20T16:00:18.860Z,13.60
2023-01-20T16:02:45.595Z,14.70
2023-01-20T16:05:15.751Z,16.45
2023-01-20T16:07:44.468Z,17.42
2023-01-20T16:10:17.251Z,16.45
2023-01-20T16:12:47.086Z,15.90
2023-01-20T16:15:16.547Z,16.58
2023-01-20T16:17:44.709Z,17.58
2023-01-20T16:20:19.493Z,18.27
2023-01-20T16:22:46.556Z,17.17
2023-01-20T16:25:13.713Z,16.70
2023-01-20T16:27:40.231Z,18.45
2023-01-20T16:30:07.711Z,18.75
2023-01-20T16:32:34.555Z,18.77
2023-01-20T16:35:01.018Z,17.67
2023-01-20T16:37:27.677Z,15.77
2023-01-20T16:39:56.074Z,18.02
2023-01-20T16:42:22.519Z,17.45
2023-01-20T16:44:49.532Z,18.75
2023-01-20T16:47:16.140Z,16.30
2023-01-20T16:49:43.780Z,18.48
2023-01-20T16:52:11.640Z,20.65
2023-01-20T16:54:38.055Z,24.23
2023-01-20T16:57:04.462Z,23.10
2023-01-20T16:59:30.974Z,24.23
2023-01-20T17:01:57.425Z,24.80
2023-01-20T17:04:23.857Z,30.75
2023-01-20T17:06:53.284Z,24.83
2023-01-20T17:09:19.706Z,27.15
2023-01-20T17:11:46.125Z,29.33
2023-01-20T17:14:12.599Z,31.60
2023-01-20T17:16:39.457Z,31.35
2023-01-20T17:19:06.080Z,36.30
2023-01-20T17:21:36.951Z,34.38
2023-01-20T17:24:05.150Z,36.25
2023-01-20T17:26:32.429Z,35.03
2023-01-20T17:29:04.310Z,37.08
2023-01-20T17:31:34.335Z,34.03
2023-01-20T17:34:00.824Z,40.72
2023-01-20T17:36:28.361Z,36.42
2023-01-20T17:38:54.912Z,31.58
2023-01-20T17:41:21.298Z,28.38
2023-01-20T17:43:47.832Z,26.88
2023-01-20T17:46:17.751Z,21.55
2023-01-20T17:48:45.102Z,20.35
2023-01-20T17:51:28.654Z,18.25
2023-01-20T17:53:56.849Z,18.27
2023-01-20T17:56:23.497Z,27.25
2023-01-20T17:58:50.042Z,29.67
2023-01-20T18:01:19.222Z,18.58
2023-01-20T18:03:47.358Z,20.05
2023-01-20T18:06:15.879Z,18.10
2023-01-20T18:08:44.841Z,26.75
2023-01-20T18:11:19.354Z,25.80
2023-01-20T18:13:46.703Z,26.17
2023-01-20T18:16:15.255Z,21.98
2023-01-20T18:18:43.808Z,20.05
2023-01-20T18:21:19.325Z,19.95
2023-01-20T18:23:47.342Z,21.42
2023-01-20T18:26:15.872Z,18.92
2023-01-20T18:28:43.369Z,21.80
2023-01-20T18:31:15.542Z,26.40
2023-01-20T18:33:44.609Z,26.08
2023-01-20T18:36:14.998Z,23.83
2023-01-20T18:38:43.424Z,34.80
2023-01-20T18:41:11.011Z,37.85
2023-01-20T18:43:38.024Z,38.10
2023-01-20T18:46:05.748Z,38.13
2023-01-20T18:48:32.693Z,34.45
2023-01-20T18:51:00.416Z,45.20
2023-01-20T18:53:30.693Z,43.45
2023-01-20T18:56:05.090Z,49.88
2023-01-20T18:58:32.655Z,45.05
2023-01-20T19:01:06.936Z,50.20
2023-01-20T19:03:34.636Z,48.17
2023-01-20T19:06:12.790Z,44.25
2023-01-20T19:08:40.205Z,42.65
2023-01-20T19:11:10.147Z,43.22
2023-01-20T19:13:36.599Z,42.05
2023-01-20T19:16:03.076Z,39.33
2023-01-20T19:18:29.678Z,36.35
2023-01-20T19:20:56.159Z,42.50
2023-01-20T19:23:22.629Z,41.90
2023-01-20T19:25:59.771Z,47.78
2023-01-20T19:28:26.149Z,44.15
2023-01-20T19:30:52.669Z,39.83
2023-01-20T19:33:19.142Z,41.55
2023-01-20T19:35:45.560Z,43.40
2023-01-20T19:38:11.972Z,44.40
2023-01-20T19:40:39.654Z,47.85
2023-01-20T19:43:06.118Z,52.70
2023-01-20T19:45:45.482Z,45.15
2023-01-20T19:48:12.351Z,36.97
2023-01-20T19:50:38.990Z,43.45
2023-01-20T19:53:05.411Z,58.30
2023-01-20T19:55:31.836Z,77.80
2023-01-20T19:57:58.302Z,65.68
2023-01-20T20:00:24.772Z,46.47
2023-01-20T20:02:53.959Z,40.35
2023-01-20T20:05:20.373Z,41.95
2023-01-20T20:07:46.902Z,48.38
2023-01-20T20:10:13.330Z,47.15
2023-01-20T20:12:39.790Z,50.72
2023-01-20T20:15:06.690Z,42.90
2023-01-20T20:17:33.184Z,44.72
2023-01-20T20:19:59.576Z,33.92
2023-01-20T20:22:26.062Z,28.38
2023-01-20T20:24:52.450Z,31.65
2023-01-20T20:27:18.836Z,32.90
2023-01-20T20:29:45.386Z,31.05
2023-01-20T20:32:12.180Z,36.05
2023-01-20T20:34:38.608Z,35.05
2023-01-20T20:37:05.074Z,32.00
2023-01-20T20:39:31.523Z,33.45
2023-01-20T20:41:57.964Z,32.97
2023-01-20T20:44:24.505Z,32.92
2023-01-20T20:46:50.988Z,37.63
2023-01-20T20:49:17.928Z,34.80
2023-01-20T20:51:44.529Z,36.38
2023-01-20T20:54:13.931Z,35.58
2023-01-20T20:56:40.345Z,33.63
2023-01-20T20:59:06.773Z,29.85
2023-01-20T21:01:34.485Z,33.03
2023-01-20T21:04:02.420Z,29.33
2023-01-20T21:06:30.022Z,29.05
2023-01-20T21:08:56.561Z,26.27
2023-01-20T21:11:24.060Z,30.65
2023-01-20T21:13:50.582Z,30.25
2023-01-20T21:16:20.662Z,28.13
2023-01-20T21:18:47.943Z,21.92
2023-01-20T21:21:17.040Z,21.60
2023-01-20T21:23:50.810Z,18.40
2023-01-20T21:26:17.466Z,19.75
2023-01-20T21:28:44.459Z,20.05
2023-01-20T21:31:14.288Z,21.33
2023-01-20T21:33:42.359Z,20.98
2023-01-20T21:36:12.200Z,20.45
2023-01-20T21:38:46.497Z,19.88
2023-01-20T21:41:14.713Z,21.15
2023-01-20T21:44:02.385Z,20.55
2023-01-20T21:46:35.913Z,21.55
2023-01-20T21:49:23.295Z,22.88
2023-01-20T21:52:08.785Z,24.08
2023-01-20T21:54:35.309Z,23.55
2023-01-20T21:57:01.996Z,24.98
2023-01-20T21:59:28.464Z,26.05
2023-01-20T22:01:54.913Z,23.60
2023-01-20T22:04:21.437Z,23.02
2023-01-20T22:06:47.944Z,23.00
2023-01-20T22:09:14.553Z,22.67
2023-01-20T22:11:40.988Z,23.02
2023-01-20T22:14:09.029Z,22.90
2023-01-20T22:16:35.526Z,23.92
2023-01-20T22:19:02.038Z,22.95
2023-01-20T22:21:29.523Z,24.77
2023-01-20T22:23:55.948Z,24.33
2023-01-20T22:26:22.385Z,23.55
2023-01-20T22:28:48.872Z,24.33
2023-01-20T22:31:23.993Z,23.80
2023-01-20T22:33:54.265Z,21.85
2023-01-20T22:36:21.771Z,22.83
2023-01-20T22:38:49.435Z,25.20
2023-01-20T22:41:16.453Z,26.75
2023-01-20T22:43:47.729Z,26.40
2023-01-20T22:46:16.444Z,27.15
2023-01-20T22:48:42.943Z,29.35
2023-01-20T22:51:12.317Z,26.77
2023-01-20T22:53:39.338Z,27.58
2023-01-20T22:56:13.309Z,27.65
2023-01-20T22:58:40.870Z,26.02
2023-01-20T23:01:14.313Z,27.70
2023-01-20T23:03:41.411Z,25.10
2023-01-20T23:06:08.540Z,25.35
2023-01-20T23:08:35.326Z,25.23
2023-01-20T23:11:07.206Z,24.02
2023-01-20T23:13:35.201Z,25.13
2023-01-20T23:16:04.534Z,23.23
2023-01-20T23:18:31.747Z,23.77
2023-01-20T23:20:58.192Z,25.17
2023-01-20T23:23:26.100Z,24.05
2023-01-20T23:26:01.193Z,24.10
2023-01-20T23:28:27.981Z,23.70
2023-01-20T23:31:05.486Z,23.98
2023-01-20T23:33:32.806Z,24.33
2023-01-20T23:36:10.502Z,24.58
2023-01-20T23:38:37.031Z,23.60
2023-01-20T23:41:04.101Z,22.92
2023-01-20T23:43:31.468Z,24.05
2023-01-20T23:46:02.961Z,24.15
2023-01-20T23:48:30.103Z,25.13
2023-01-20T23:50:59.709Z,25.35
2023-01-20T23:53:27.637Z,24.35
2023-01-20T23:56:03.134Z,28.05
2023-01-20T23:58:30.180Z,25.48
